Time;durP1;ratioP1;P1;durP2;ratioP2;P2;SDS_P1;SDS_P2;PMS_P1;PMS_P2;Temp;Humidity;BMP_temperature;BMP_pressure;BME280_temperature;BME280_humidity;BME280_pressure;Samples;Min_cycle;Max_cycle;Signal;HPM_P1;HPM_P2
2021/05/05 00:01:16;;;;;;;;;;;;;;;20.17;36.35;100284.84;2164574;40;115662;-58
2021/05/05 00:02:47;;;;;;;;;;;;;;;20.14;36.35;100290.25;2165775;40;115579;-56
2021/05/05 00:04:19;;;;;;;;;;;;;;;20.14;36.24;100295.88;2167696;40;115974;-55
2021/05/05 00:05:52;;;;;;;;;;;;;;;20.12;36.15;100279.38;2161128;40;115604;-57
2021/05/05 00:07:23;;;;;;;;;;;;;;;20.12;36.30;100278.56;2161496;40;116234;-58
2021/05/05 00:08:54;;;;;;;;;;;;;;;20.11;36.36;100288.94;2168053;40;115617;-56
2021/05/05 00:10:26;;;;;;;;;;;;;;;20.11;36.30;100291.75;2167986;40;115548;-56
2021/05/05 00:11:57;;;;;;;;;;;;;;;20.09;36.44;100280.00;2167770;40;115578;-56
2021/05/05 00:13:28;;;;;;;;;;;;;;;20.08;36.24;100289.56;2160833;40;115984;-57
2021/05/05 00:14:59;;;;;;;;;;;;;;;20.07;36.11;100278.69;2165865;40;115806;-55
2021/05/05 00:16:31;;;;;;;;;;;;;;;20.09;36.29;100285.63;2164357;40;114899;-59
2021/05/05 00:18:02;;;;;;;;;;;;;;;20.07;36.38;100284.31;2165357;40;115566;-57
2021/05/05 00:19:33;;;;;;;;;;;;;;;20.06;36.66;100291.06;2169752;40;115467;-58
2021/05/05 00:21:05;;;;;;;;;;;;;;;20.06;36.58;100294.69;2167451;40;113737;-55
2021/05/05 00:22:36;;;;;;;;;;;;;;;20.07;36.59;100295.50;2157281;40;113719;-56
2021/05/05 00:24:08;;;;;;;;;;;;;;;20.06;36.55;100291.88;2160585;40;114188;-55
2021/05/05 00:25:39;;;;;;;;;;;;;;;20.08;36.52;100295.16;2167085;40;114223;-57
2021/05/05 00:27:10;;;;;;;;;;;;;;;20.06;36.54;100297.50;2167554;40;113871;-53
2021/05/05 00:28:42;;;;;;;;;;;;;;;20.05;36.47;100298.63;2161095;40;113878;-57
2021/05/05 00:30:13;;;;;;;;;;;;;;;20.04;36.24;100296.13;2163601;40;114023;-54
2021/05/05 00:31:44;;;;;;;;;;;;;;;20.03;36.60;100297.31;2164611;40;113655;-55
2021/05/05 00:33:16;;;;;;;;;;;;;;;20.01;36.27;100297.63;2167584;40;113936;-54
2021/05/05 00:34:47;;;;;;;;;;;;;;;20.01;36.62;100296.78;2166684;40;113653;-57
2021/05/05 00:36:18;;;;;;;;;;;;;;;19.99;36.56;100297.94;2166432;40;113809;-56
2021/05/05 00:37:49;;;;;;;;;;;;;;;19.98;36.40;100295.47;2168335;40;113830;-57
2021/05/05 00:39:20;;;;;;;;;;;;;;;19.99;36.61;100297.94;2168203;40;113668;-55
2021/05/05 00:40:51;;;;;;;;;;;;;;;19.99;36.67;100300.75;2167767;40;114215;-54
2021/05/05 00:42:23;;;;;;;;;;;;;;;19.98;36.55;100295.47;2166702;40;114991;-55
2021/05/05 00:43:54;;;;;;;;;;;;;;;19.96;36.59;100295.78;2167738;40;114875;-56
2021/05/05 00:45:26;;;;;;;;;;;;;;;19.98;36.86;100293.50;2168049;40;114918;-54
2021/05/05 00:46:57;;;;;;;;;;;;;;;19.98;36.74;100301.06;2168126;40;114830;-58
2021/05/05 00:48:28;;;;;;;;;;;;;;;19.98;36.68;100299.09;2160552;40;115804;-54
2021/05/05 00:49:59;;;;;;;;;;;;;;;19.99;37.05;100297.09;2162239;40;115402;-55
2021/05/05 00:51:32;;;;;;;;;;;;;;;19.99;36.35;100303.53;2161474;40;114850;-56
2021/05/05 00:53:03;;;;;;;;;;;;;;;19.98;36.26;100304.72;2161762;40;115036;-55
2021/05/05 00:54:34;;;;;;;;;;;;;;;19.99;36.79;100297.09;2161757;40;115708;-54
2021/05/05 00:56:06;;;;;;;;;;;;;;;19.94;36.78;100294.47;2163994;40;115182;-57
2021/05/05 00:57:38;;;;;;;;;;;;;;;19.92;36.89;100299.53;2161750;40;115391;-58
2021/05/05 00:59:09;;;;;;;;;;;;;;;19.90;36.88;100299.84;2165166;40;114971;-58
2021/05/05 01:00:42;;;;;;;;;;;;;;;19.91;37.09;100295.06;2163703;40;114746;-55
2021/05/05 01:02:13;;;;;;;;;;;;;;;19.89;36.97;100303.00;2167255;40;115021;-54
2021/05/05 01:03:45;;;;;;;;;;;;;;;19.91;36.96;100303.50;2163340;40;115833;-58
2021/05/05 01:05:17;;;;;;;;;;;;;;;19.89;37.08;100303.81;2161245;40;115841;-55
2021/05/05 01:06:48;;;;;;;;;;;;;;;19.87;37.01;100308.91;2162980;40;115635;-55
2021/05/05 01:08:21;;;;;;;;;;;;;;;19.88;36.96;100302.16;2165640;40;115579;-54
2021/05/05 01:09:52;;;;;;;;;;;;;;;19.87;37.19;100299.66;2163782;40;115726;-61
2021/05/05 01:11:24;;;;;;;;;;;;;;;19.87;37.09;100297.69;2163447;40;116065;-58
2021/05/05 01:12:56;;;;;;;;;;;;;;;19.88;36.83;100290.13;2165430;40;115501;-55
2021/05/05 01:14:27;;;;;;;;;;;;;;;19.88;37.01;100298.53;2166151;40;115081;-56
2021/05/05 01:15:59;;;;;;;;;;;;;;;19.88;36.87;100304.13;2164018;40;115935;-55
2021/05/05 01:17:32;;;;;;;;;;;;;;;19.85;36.88;100302.00;2165689;40;116230;-55
2021/05/05 01:19:04;;;;;;;;;;;;;;;19.84;37.11;100305.94;2168243;40;115530;-54
2021/05/05 01:20:35;;;;;;;;;;;;;;;19.84;37.19;100303.13;2165488;40;115484;-57
2021/05/05 01:22:06;;;;;;;;;;;;;;;19.82;37.17;100309.03;2166385;40;116695;-57
2021/05/05 01:23:38;;;;;;;;;;;;;;;19.84;37.23;100301.16;2166950;40;115596;-57
2021/05/05 01:25:11;;;;;;;;;;;;;;;19.82;37.20;100305.41;2167163;40;113952;-57
2021/05/05 01:26:42;;;;;;;;;;;;;;;19.82;37.16;100302.59;2168246;40;113977;-54
2021/05/05 01:28:13;;;;;;;;;;;;;;;19.80;37.18;100308.56;2167400;40;115155;-54
2021/05/05 01:29:45;;;;;;;;;;;;;;;19.78;36.95;100308.03;2161150;40;113836;-55
2021/05/05 01:31:16;;;;;;;;;;;;;;;19.79;36.89;100309.69;2161553;40;113955;-56
2021/05/05 01:32:48;;;;;;;;;;;;;;;19.78;36.96;100310.81;2167634;40;113755;-54
2021/05/05 01:34:19;;;;;;;;;;;;;;;19.79;37.13;100304.09;2166010;40;114194;-57
2021/05/05 01:35:50;;;;;;;;;;;;;;;19.78;37.16;100308.03;2168469;40;114490;-57
2021/05/05 01:37:21;;;;;;;;;;;;;;;19.78;37.21;100305.22;2173041;40;114660;-57
2021/05/05 01:38:52;;;;;;;;;;;;;;;19.76;37.23;100307.50;2163150;40;114213;-57
2021/05/05 01:40:27;;;;;;;;;;;;;;;19.75;37.18;100314.28;2162051;40;113716;-55
2021/05/05 01:41:58;;;;;;;;;;;;;;;19.73;37.10;100316.56;2165074;40;113829;-56
2021/05/05 01:43:30;;;;;;;;;;;;;;;19.70;37.35;100314.41;2162207;40;113915;-55
2021/05/05 01:45:01;;;;;;;;;;;;;;;19.70;37.33;100317.22;2166413;40;114558;-54
2021/05/05 01:46:33;;;;;;;;;;;;;;;19.71;37.31;100316.06;2168793;40;113922;-54
2021/05/05 01:48:08;;;;;;;;;;;;;;;19.71;37.24;100323.66;2167653;40;114992;-56
2021/05/05 01:49:41;;;;;;;;;;;;;;;19.71;37.22;100318.03;2168040;40;114940;-56
2021/05/05 01:51:13;;;;;;;;;;;;;;;19.73;37.32;100312.94;2167684;40;114989;-57
2021/05/05 01:52:44;;;;;;;;;;;;;;;19.69;37.25;100312.75;2165466;40;115208;-55
2021/05/05 01:54:16;;;;;;;;;;;;;;;19.71;37.18;100309.63;2166849;40;114956;-55
2021/05/05 01:55:47;;;;;;;;;;;;;;;19.71;37.12;100318.03;2167814;40;115014;-54
2021/05/05 01:57:21;;;;;;;;;;;;;;;19.70;37.10;100319.19;2167868;40;115014;-56
2021/05/05 01:58:52;;;;;;;;;;;;;;;19.67;37.26;100315.03;2173050;40;115274;-57
2021/05/05 02:00:25;;;;;;;;;;;;;;;19.68;37.36;100321.44;2168302;40;115959;-56
2021/05/05 02:01:56;;;;;;;;;;;;;;;19.66;37.38;100323.75;2166318;40;114975;-57
2021/05/05 02:03:28;;;;;;;;;;;;;;;19.68;37.35;100325.09;2167789;40;115320;-58
2021/05/05 02:04:59;;;;;;;;;;;;;;;19.69;37.11;100323.13;2165983;40;115038;-56
2021/05/05 02:06:30;;;;;;;;;;;;;;;19.66;37.30;100313.38;2165796;40;115115;-58
2021/05/05 02:08:02;;;;;;;;;;;;;;;19.66;37.08;100313.38;2169431;40;115232;-58
2021/05/05 02:09:33;;;;;;;;;;;;;;;19.66;37.41;100319.00;2168261;40;115958;-55
2021/05/05 02:11:04;;;;;;;;;;;;;;;19.65;37.11;100330.50;2168369;40;115877;-57
2021/05/05 02:12:35;;;;;;;;;;;;;;;19.64;37.37;100321.28;2168795;40;115608;-57
2021/05/05 02:14:06;;;;;;;;;;;;;;;19.66;37.28;100324.59;2168175;40;115660;-56
2021/05/05 02:15:37;;;;;;;;;;;;;;;19.65;37.31;100324.91;2164432;40;115588;-53
2021/05/05 02:17:09;;;;;;;;;;;;;;;19.62;37.25;100320.78;2164550;40;116244;-56
2021/05/05 02:18:41;;;;;;;;;;;;;;;19.60;37.18;100325.84;2162091;40;115483;-57
2021/05/05 02:20:13;;;;;;;;;;;;;;;19.62;37.14;100329.19;2162942;40;115732;-54
2021/05/05 02:21:44;;;;;;;;;;;;;;;19.62;37.37;100331.16;2165416;40;115692;-56
2021/05/05 02:23:16;;;;;;;;;;;;;;;19.60;37.30;100327.81;2167061;40;115636;-58
2021/05/05 02:24:47;;;;;;;;;;;;;;;19.60;37.10;100339.03;2162271;40;115602;-58
2021/05/05 02:26:18;;;;;;;;;;;;;;;19.61;37.12;100330.31;2165934;40;115864;-55
2021/05/05 02:27:50;;;;;;;;;;;;;;;19.60;37.16;100336.22;2166593;40;115533;-59
2021/05/05 02:29:21;;;;;;;;;;;;;;;19.62;37.27;100339.56;2169960;40;116839;-54
2021/05/05 02:30:53;;;;;;;;;;;;;;;19.63;37.16;100344.00;2167887;40;113689;-57
2021/05/05 02:32:25;;;;;;;;;;;;;;;19.59;37.23;100348.59;2171785;40;114059;-54
2021/05/05 02:33:56;;;;;;;;;;;;;;;19.56;37.43;100352.03;2167886;40;113816;-59
2021/05/05 02:35:27;;;;;;;;;;;;;;;19.56;37.25;100352.03;2167327;40;113938;-55
2021/05/05 02:36:58;;;;;;;;;;;;;;;19.59;37.53;100357.00;2165290;40;113662;-57
2021/05/05 02:38:29;;;;;;;;;;;;;;;19.57;37.49;100359.28;2165500;40;113759;-56
2021/05/05 02:40:01;;;;;;;;;;;;;;;19.59;37.62;100354.19;2166490;40;113788;-56
2021/05/05 02:41:32;;;;;;;;;;;;;;;19.55;37.33;100356.81;2166282;40;114178;-56
2021/05/05 02:43:03;;;;;;;;;;;;;;;19.55;37.28;100359.59;2168066;40;114070;-53
2021/05/05 02:44:34;;;;;;;;;;;;;;;19.55;37.29;100356.81;2168552;40;113853;-53
2021/05/05 02:46:06;;;;;;;;;;;;;;;19.52;37.64;100361.06;2167971;40;113938;-55
2021/05/05 02:47:37;;;;;;;;;;;;;;;19.53;37.51;100359.09;2168139;40;114373;-56
2021/05/05 02:49:08;;;;;;;;;;;;;;;19.52;37.59;100363.88;2166614;40;113988;-55
2021/05/05 02:50:39;;;;;;;;;;;;;;;19.53;37.50;100362.72;2165376;40;114063;-58
2021/05/05 02:52:10;;;;;;;;;;;;;;;19.52;37.77;100366.69;2168640;40;114895;-54
2021/05/05 02:53:41;;;;;;;;;;;;;;;19.54;37.79;100369.16;2161365;40;115632;-54
2021/05/05 02:55:13;;;;;;;;;;;;;;;19.51;37.88;100375.38;2168411;40;114945;-57
2021/05/05 02:56:44;;;;;;;;;;;;;;;19.51;37.79;100369.78;2163164;40;114828;-57
2021/05/05 02:58:15;;;;;;;;;;;;;;;19.50;37.39;100368.94;2166984;40;114883;-55
2021/05/05 02:59:47;;;;;;;;;;;;;;;19.48;37.72;100374.06;2168162;40;115520;-55
2021/05/05 03:01:18;;;;;;;;;;;;;;;19.50;38.03;100374.56;2168269;40;114973;-58
2021/05/05 03:02:49;;;;;;;;;;;;;;;19.48;37.73;100373.22;2168281;40;115140;-53
2021/05/05 03:04:20;;;;;;;;;;;;;;;19.48;37.57;100367.63;2173381;40;115148;-58
2021/05/05 03:05:52;;;;;;;;;;;;;;;19.46;38.01;100378.31;2170065;40;114104;-56
2021/05/05 03:07:23;;;;;;;;;;;;;;;19.48;37.89;100374.06;2161143;40;115039;-56
2021/05/05 03:08:54;;;;;;;;;;;;;;;19.50;38.12;100379.34;2166237;40;115122;-57
2021/05/05 03:10:25;;;;;;;;;;;;;;;19.48;37.99;100373.22;2168296;40;115034;-55
2021/05/05 03:11:57;;;;;;;;;;;;;;;19.48;37.97;100381.63;2170890;40;115005;-56
2021/05/05 03:13:29;;;;;;;;;;;;;;;19.44;37.79;100375.81;2168519;40;115096;-55
2021/05/05 03:15:00;;;;;;;;;;;;;;;19.46;37.93;100387.53;2168000;40;115625;-55
2021/05/05 03:16:31;;;;;;;;;;;;;;;19.44;38.14;100380.63;2168108;40;115596;-53
2021/05/05 03:18:03;;;;;;;;;;;;;;;19.43;37.84;100378.91;2167394;40;116650;-57
2021/05/05 03:19:34;;;;;;;;;;;;;;;19.43;37.87;100382.59;2168080;40;115381;-57
2021/05/05 03:21:05;;;;;;;;;;;;;;;19.43;37.87;100381.72;2167694;40;115807;-56
2021/05/05 03:22:37;;;;;;;;;;;;;;;19.41;38.01;100378.38;2168124;40;116334;-58
2021/05/05 03:24:09;;;;;;;;;;;;;;;19.42;37.95;100382.84;2168712;40;116292;-57
2021/05/05 03:25:40;;;;;;;;;;;;;;;19.42;37.96;100391.25;2168227;40;115267;-55
2021/05/05 03:27:12;;;;;;;;;;;;;;;19.43;37.85;100398.53;2162782;40;116252;-55
2021/05/05 03:28:44;;;;;;;;;;;;;;;19.42;37.91;100391.25;2166839;40;115506;-56
2021/05/05 03:30:15;;;;;;;;;;;;;;;19.42;38.32;100389.28;2164260;40;115296;-58
2021/05/05 03:31:46;;;;;;;;;;;;;;;19.40;37.79;100396.34;2166953;40;115802;-55
2021/05/05 03:33:17;;;;;;;;;;;;;;;19.40;38.17;100401.94;2168882;40;115714;-57
2021/05/05 03:34:49;;;;;;;;;;;;;;;19.40;37.96;100394.38;2170417;40;115558;-56
2021/05/05 03:36:20;;;;;;;;;;;;;;;19.40;37.81;100391.56;2168242;40;113583;-54
2021/05/05 03:37:51;;;;;;;;;;;;;;;19.40;38.07;100402.75;2168588;40;113983;-55
2021/05/05 03:39:22;;;;;;;;;;;;;;;19.40;37.85;100399.13;2168201;40;114202;-56
2021/05/05 03:40:53;;;;;;;;;;;;;;;19.39;38.00;100405.91;2168426;40;113621;-54
2021/05/05 03:42:25;;;;;;;;;;;;;;;19.39;37.96;100394.69;2168031;40;114068;-54
2021/05/05 03:43:56;;;;;;;;;;;;;;;19.36;38.14;100398.94;2168171;40;114027;-55
2021/05/05 03:45:27;;;;;;;;;;;;;;;19.38;38.04;100398.63;2168234;40;113977;-54
2021/05/05 03:46:59;;;;;;;;;;;;;;;19.37;38.14;100402.56;2167891;40;113700;-57
2021/05/05 03:48:30;;;;;;;;;;;;;;;19.37;38.08;100397.81;2164743;40;113723;-54
2021/05/05 03:50:01;;;;;;;;;;;;;;;19.35;38.07;100400.06;2162312;40;113967;-56
2021/05/05 03:51:32;;;;;;;;;;;;;;;19.35;38.04;100402.06;2166986;40;114014;-56
2021/05/05 03:53:03;;;;;;;;;;;;;;;19.35;37.93;100399.28;2164513;40;115301;-55
2021/05/05 03:54:34;;;;;;;;;;;;;;;19.36;37.89;100403.72;2164937;40;113971;-57
2021/05/05 03:56:06;;;;;;;;;;;;;;;19.34;37.92;100406.84;2169608;40;113907;-56
2021/05/05 03:57:37;;;;;;;;;;;;;;;19.34;37.97;100408.81;2165634;40;114327;-57
2021/05/05 03:59:09;;;;;;;;;;;;;;;19.32;37.91;100405.47;2165365;40;115458;-55
2021/05/05 04:00:40;;;;;;;;;;;;;;;19.33;37.97;100410.78;2164584;40;115090;-55
2021/05/05 04:02:11;;;;;;;;;;;;;;;19.31;37.90;100409.41;2168645;40;114878;-57
2021/05/05 04:03:42;;;;;;;;;;;;;;;19.32;37.86;100411.91;2167907;40;115098;-57
2021/05/05 04:05:14;;;;;;;;;;;;;;;19.31;38.04;100409.41;2168306;40;115232;-55
2021/05/05 04:06:45;;;;;;;;;;;;;;;19.31;37.89;100415.03;2167887;40;114992;-55
2021/05/05 04:08:16;;;;;;;;;;;;;;;19.30;38.18;100410.59;2164227;40;115353;-56
2021/05/05 04:09:47;;;;;;;;;;;;;;;19.28;38.14;100408.09;2160809;40;114942;-57
2021/05/05 04:11:19;;;;;;;;;;;;;;;19.29;38.34;100408.91;2165672;40;114960;-56
2021/05/05 04:12:51;;;;;;;;;;;;;;;19.26;38.38;100413.16;2165946;40;115334;-57
2021/05/05 04:14:42;;;;;;;;;;;;;;;19.26;38.27;100406.75;2164254;40;113654;-58
2021/05/05 04:16:31;;;;;;;;;;;;;;;19.27;38.48;100416.78;2165892;40;113850;-56
2021/05/05 04:18:20;;;;;;;;;;;;;;;19.27;38.38;100416.78;2170881;40;113874;-55
2021/05/05 04:20:09;;;;;;;;;;;;;;;19.25;38.32;100422.72;2161522;40;114167;-55
2021/05/05 04:21:58;;;;;;;;;;;;;;;19.26;38.35;100434.75;2164489;40;114187;-56
2021/05/05 04:23:47;;;;;;;;;;;;;;;19.24;38.63;100423.03;2162758;40;114444;-54
2021/05/05 04:25:22;;;;;;;;;;;;;;;19.26;38.71;100431.97;2167280;40;115542;-57
2021/05/05 04:26:53;;;;;;;;;;;;;;;19.23;38.74;100435.38;2168067;40;115542;-57
2021/05/05 04:28:25;;;;;;;;;;;;;;;19.24;38.57;100432.25;2168104;40;116351;-58
2021/05/05 04:31:31;;;;;;;;;;;;;;;19.24;38.78;100434.22;2166067;40;115465;-54
2021/05/05 04:33:02;;;;;;;;;;;;;;;19.25;38.65;100438.69;2167986;40;115545;-57
2021/05/05 04:34:33;;;;;;;;;;;;;;;19.23;38.70;100438.16;2168269;40;115468;-53
2021/05/05 04:36:04;;;;;;;;;;;;;;;19.23;38.80;100441.81;2168416;40;116465;-57
2021/05/05 04:37:38;;;;;;;;;;;;;;;19.22;39.16;100442.09;2170889;40;115649;-58
2021/05/05 04:39:09;;;;;;;;;;;;;;;19.21;39.14;100432.91;2166553;40;115556;-54
2021/05/05 04:40:44;;;;;;;;;;;;;;;19.22;39.19;100440.13;2167952;40;114514;-58
2021/05/05 04:42:15;;;;;;;;;;;;;;;19.20;39.19;100445.22;2167746;40;114760;-56
2021/05/05 04:43:47;;;;;;;;;;;;;;;19.19;39.10;100451.97;2168120;40;113908;-56
2021/05/05 04:45:18;;;;;;;;;;;;;;;19.17;39.15;100448.63;2166606;40;114103;-54
2021/05/05 04:46:49;;;;;;;;;;;;;;;19.18;38.95;100449.47;2168480;40;114049;-57
2021/05/05 04:48:21;;;;;;;;;;;;;;;19.20;38.72;100458.41;2168223;40;114296;-57
2021/05/05 04:49:52;;;;;;;;;;;;;;;19.21;39.34;100454.47;2167853;40;113914;-57
2021/05/05 04:51:23;;;;;;;;;;;;;;;19.24;39.56;100460.28;2167609;40;114013;-57
2021/05/05 04:52:54;;;;;;;;;;;;;;;19.29;39.40;100465.78;2167804;40;113791;-57
2021/05/05 04:54:31;;;;;;;;;;;;;;;19.33;39.37;100460.38;2167911;40;113800;-56
2021/05/05 04:56:23;;;;;;;;;;;;;;;19.32;39.30;100462.34;2167758;40;114235;-57
2021/05/05 04:58:10;;;;;;;;;;;;;;;19.36;39.62;100466.16;2166997;40;113638;-54
2021/05/05 04:59:42;;;;;;;;;;;;;;;19.40;39.60;100469.16;2164682;40;114626;-55
2021/05/05 05:01:13;;;;;;;;;;;;;;;19.41;39.58;100471.66;2162789;40;113996;-56
2021/05/05 05:02:44;;;;;;;;;;;;;;;19.44;39.92;100473.06;2164141;40;114438;-56
2021/05/05 05:04:15;;;;;;;;;;;;;;;19.47;39.71;100469.63;2170354;40;114340;-57
2021/05/05 05:05:47;;;;;;;;;;;;;;;19.51;40.05;100470.66;2168061;40;114902;-58
2021/05/05 05:07:18;;;;;;;;;;;;;;;19.54;39.83;100468.06;2168121;40;115317;-56
2021/05/05 05:08:50;;;;;;;;;;;;;;;19.60;39.92;100473.53;2168225;40;115631;-56
2021/05/05 05:10:21;;;;;;;;;;;;;;;19.63;39.48;100482.16;2167933;40;114778;-57
2021/05/05 05:11:52;;;;;;;;;;;;;;;19.69;39.68;100485.69;2167222;40;114883;-56
2021/05/05 05:13:23;;;;;;;;;;;;;;;19.73;39.35;100487.53;2172558;40;114687;-58
2021/05/05 05:14:55;;;;;;;;;;;;;;;19.77;39.67;100482.13;2169523;40;115098;-58
2021/05/05 05:16:27;;;;;;;;;;;;;;;19.81;39.44;100485.94;2166109;40;114523;-55
2021/05/05 05:17:58;;;;;;;;;;;;;;;19.85;39.55;100484.22;2162849;40;113939;-58
2021/05/05 05:19:30;;;;;;;;;;;;;;;19.90;39.69;100490.50;2161952;40;114816;-54
2021/05/05 05:21:02;;;;;;;;;;;;;;;19.94;39.72;100488.72;2162661;40;115147;-53
2021/05/05 05:22:34;;;;;;;;;;;;;;;20.00;39.41;100503.47;2163096;40;115607;-57
2021/05/05 05:24:06;;;;;;;;;;;;;;;20.04;39.14;100495.25;2161362;40;114908;-56
2021/05/05 05:25:37;;;;;;;;;;;;;;;20.08;39.26;100491.50;2169735;40;114767;-56
2021/05/05 05:27:08;;;;;;;;;;;;;;;20.15;38.83;100499.47;2168387;40;115995;-55
2021/05/05 05:28:40;;;;;;;;;;;;;;;20.16;39.01;100493.56;2167666;40;115713;-54
2021/05/05 05:30:11;;;;;;;;;;;;;;;20.21;39.02;100495.41;2165832;40;115710;-57
2021/05/05 05:31:42;;;;;;;;;;;;;;;20.26;38.90;100498.09;2161800;40;116164;-54
2021/05/05 05:33:14;;;;;;;;;;;;;;;20.30;38.92;100505.59;2164940;40;116024;-55
2021/05/05 05:34:46;;;;;;;;;;;;;;;20.34;38.89;100501.00;2166329;40;115618;-58
2021/05/05 05:36:17;;;;;;;;;;;;;;;20.39;38.68;100512.09;2167450;40;115837;-55
2021/05/05 05:37:48;;;;;;;;;;;;;;;20.42;38.45;100513.44;2166862;40;115801;-56
2021/05/05 05:39:19;;;;;;;;;;;;;;;20.47;38.21;100512.47;2167836;40;115787;-55
2021/05/05 05:40:51;;;;;;;;;;;;;;;20.51;38.56;100510.69;2167529;40;115733;-54
2021/05/05 05:42:22;;;;;;;;;;;;;;;20.54;38.18;100516.50;2165578;40;115507;-56
2021/05/05 05:43:53;;;;;;;;;;;;;;;20.58;38.22;100519.50;2167062;40;115787;-58
2021/05/05 05:45:25;;;;;;;;;;;;;;;20.62;38.18;100521.34;2166962;40;115652;-56
2021/05/05 05:46:56;;;;;;;;;;;;;;;20.65;38.14;100519.88;2167616;40;115789;-58
2021/05/05 05:48:27;;;;;;;;;;;;;;;20.70;38.18;100529.00;2167616;40;113830;-57
2021/05/05 05:49:59;;;;;;;;;;;;;;;20.74;37.83;100534.81;2167872;40;113704;-56
2021/05/05 05:51:30;;;;;;;;;;;;;;;20.76;37.93;100524.06;2161004;40;113861;-55
2021/05/05 05:53:01;;;;;;;;;;;;;;;20.80;38.01;100528.72;2165609;40;113779;-55
2021/05/05 05:54:32;;;;;;;;;;;;;;;20.83;37.59;100518.84;2167304;40;113753;-55
2021/05/05 05:56:04;;;;;;;;;;;;;;;20.86;38.05;100526.63;2168050;40;113652;-55
2021/05/05 05:57:36;;;;;;;;;;;;;;;20.90;37.84;100529.59;2167292;40;113739;-57
2021/05/05 05:59:08;;;;;;;;;;;;;;;20.94;38.00;100531.44;2167830;40;114165;-56
2021/05/05 06:00:39;;;;;;;;;;;;;;;20.99;37.84;100533.28;2160722;40;113838;-56
2021/05/05 06:02:11;;;;;;;;;;;;;;;21.01;37.82;100536.63;2164961;40;114117;-54
2021/05/05 06:03:43;;;;;;;;;;;;;;;21.05;37.91;100538.47;2164275;40;114116;-55
2021/05/05 06:05:14;;;;;;;;;;;;;;;21.07;37.70;100530.56;2172829;40;113824;-55
2021/05/05 06:06:45;;;;;;;;;;;;;;;21.10;37.61;100537.50;2169230;40;114075;-57
2021/05/05 06:08:16;;;;;;;;;;;;;;;21.13;37.58;100540.50;2167439;40;114092;-57
2021/05/05 06:09:48;;;;;;;;;;;;;;;21.18;37.26;100542.34;2167565;40;115085;-55
2021/05/05 06:11:19;;;;;;;;;;;;;;;21.19;37.69;100539.25;2163697;40;114968;-54
2021/05/05 06:12:50;;;;;;;;;;;;;;;21.22;37.16;100541.38;2163182;40;114900;-54
2021/05/05 06:14:21;;;;;;;;;;;;;;;21.27;37.18;100546.03;2167700;40;114788;-55
2021/05/05 06:15:53;;;;;;;;;;;;;;;21.29;37.01;100544.59;2167515;40;115141;-53
2021/05/05 06:17:24;;;;;;;;;;;;;;;21.31;37.11;100547.03;2167847;40;114795;-55
2021/05/05 06:18:55;;;;;;;;;;;;;;;21.34;37.02;100546.41;2167530;40;114984;-54
2021/05/05 06:20:27;;;;;;;;;;;;;;;21.36;37.01;100544.09;2167336;40;115250;-57
2021/05/05 06:21:58;;;;;;;;;;;;;;;21.38;36.71;100549.41;2166333;40;115637;-56
2021/05/05 06:23:29;;;;;;;;;;;;;;;21.41;36.85;100555.19;2166856;40;114916;-56
2021/05/05 06:25:02;;;;;;;;;;;;;;;21.43;37.04;100554.88;2167917;40;116156;-57
2021/05/05 06:26:34;;;;;;;;;;;;;;;21.45;36.97;100563.81;2167913;40;115244;-56
2021/05/05 06:28:05;;;;;;;;;;;;;;;21.46;36.79;100569.13;2160372;40;114448;-57
2021/05/05 06:29:36;;;;;;;;;;;;;;;21.48;36.82;100564.00;2167563;40;113798;-56
2021/05/05 06:31:08;;;;;;;;;;;;;;;21.52;37.49;100569.81;2167410;40;116175;-55
2021/05/05 06:32:39;;;;;;;;;;;;;;;21.55;37.22;100566.34;2167304;40;116010;-57
2021/05/05 06:34:10;;;;;;;;;;;;;;;21.54;37.04;100565.50;2167774;40;114701;-58
2021/05/05 06:35:41;;;;;;;;;;;;;;;21.54;36.45;100562.69;2166507;40;115253;-56
2021/05/05 06:37:19;;;;;;;;;;;;;;;21.55;36.44;100567.16;2170853;40;115671;-57
2021/05/05 06:39:08;;;;;;;;;;;;;;;21.56;36.38;100565.19;2166400;40;114696;-55
2021/05/05 06:40:39;;;;;;;;;;;;;;;21.55;36.46;100572.78;2164283;40;115525;-55
2021/05/05 06:42:10;;;;;;;;;;;;;;;21.56;36.35;100570.81;2166536;40;115904;-56
2021/05/05 06:43:42;;;;;;;;;;;;;;;21.55;36.34;100564.34;2159482;40;115801;-58
2021/05/05 06:45:14;;;;;;;;;;;;;;;21.54;36.29;100568.31;2164976;40;115626;-57
2021/05/05 06:46:47;;;;;;;;;;;;;;;21.54;35.89;100573.09;2166210;40;115235;-53
2021/05/05 06:48:20;;;;;;;;;;;;;;;21.54;36.14;100573.94;2167815;40;115759;-54
2021/05/05 06:49:52;;;;;;;;;;;;;;;21.54;36.11;100576.75;2167178;40;115774;-57
2021/05/05 06:51:23;;;;;;;;;;;;;;;21.54;36.17;100579.56;2167157;40;115686;-55
2021/05/05 06:52:57;;;;;;;;;;;;;;;21.53;35.91;100580.72;2169873;40;114767;-56
2021/05/05 06:54:29;;;;;;;;;;;;;;;21.53;35.92;100582.72;2166475;40;113801;-55
2021/05/05 06:56:00;;;;;;;;;;;;;;;21.53;36.01;100583.50;2167318;40;114062;-55
2021/05/05 06:57:31;;;;;;;;;;;;;;;21.52;35.65;100584.69;2164605;40;113690;-56
2021/05/05 06:59:03;;;;;;;;;;;;;;;21.52;35.57;100593.13;2166866;40;114015;-57
2021/05/05 07:00:34;;;;;;;;;;;;;;;21.52;35.57;100592.28;2165746;40;113724;-56
2021/05/05 07:02:05;;;;;;;;;;;;;;;21.50;35.56;100592.59;2162733;40;113769;-57
2021/05/05 07:03:37;;;;;;;;;;;;;;;21.49;35.45;100605.00;2165946;40;114386;-56
2021/05/05 07:05:09;;;;;;;;;;;;;;;21.23;32.80;100595.59;2167376;40;114304;-56
2021/05/05 07:06:40;;;;;;;;;;;;;;;21.04;32.41;100609.00;2166847;40;114163;-56
2021/05/05 07:08:28;;;;;;;;;;;;;;;21.02;33.38;100608.50;2168517;40;113793;-54
2021/05/05 07:10:02;;;;;;;;;;;;;;;21.09;33.36;100611.69;2161821;40;113977;-55
2021/05/05 07:11:43;;;;;;;;;;;;;;;21.14;33.40;100615.22;2165818;40;114095;-55
2021/05/05 07:13:15;;;;;;;;;;;;;;;21.15;33.69;100611.28;2168102;40;114406;-56
2021/05/05 07:14:46;;;;;;;;;;;;;;;21.18;33.74;100623.84;2170963;40;113852;-56
2021/05/05 07:16:17;;;;;;;;;;;;;;;21.17;33.53;100620.19;2161313;40;115166;-55
2021/05/05 07:17:49;;;;;;;;;;;;;;;21.13;33.64;100616.38;2165678;40;115176;-55
2021/05/05 07:19:20;;;;;;;;;;;;;;;21.13;33.93;100624.78;2164394;40;114454;-54
2021/05/05 07:20:52;;;;;;;;;;;;;;;21.14;33.77;100620.00;2168316;40;115463;-57
2021/05/05 07:22:23;;;;;;;;;;;;;;;21.13;33.47;100621.16;2163588;40;115619;-54
2021/05/05 07:23:56;;;;;;;;;;;;;;;21.12;33.71;100613.88;2165912;40;115217;-54
2021/05/05 07:25:27;;;;;;;;;;;;;;;21.09;33.51;100626.56;2166637;40;114920;-56
2021/05/05 07:26:59;;;;;;;;;;;;;;;21.07;33.87;100626.06;2162049;40;115086;-54
2021/05/05 07:28:30;;;;;;;;;;;;;;;21.07;33.73;100625.22;2165917;40;114888;-56
2021/05/05 07:30:02;;;;;;;;;;;;;;;21.05;34.39;100628.34;2161373;40;115331;-56
2021/05/05 07:31:33;;;;;;;;;;;;;;;21.07;34.36;100623.25;2165949;40;114673;-60
2021/05/05 07:33:08;;;;;;;;;;;;;;;21.07;34.23;100628.03;2166689;40;114920;-56
2021/05/05 07:34:53;;;;;;;;;;;;;;;21.06;33.73;100623.56;2162524;40;115181;-54
2021/05/05 07:36:30;;;;;;;;;;;;;;;21.05;33.88;100622.72;2165772;40;115352;-54
2021/05/05 07:42:13;;;;;;;;;;;;;;;21.01;33.72;100627.34;2164886;40;115689;-58
2021/05/05 07:45:20;;;;;;;;;;;;;;;20.98;33.64;100629.97;2165962;40;114658;-54
2021/05/05 07:48:36;;;;;;;;;;;;;;;20.97;33.85;100626.31;2164124;40;115659;-55
2021/05/05 07:50:12;;;;;;;;;;;;;;;20.94;33.38;100626.94;2165671;40;115960;-57
2021/05/05 07:51:43;;;;;;;;;;;;;;;20.95;33.84;100627.75;2166293;40;114048;-55
2021/05/05 07:53:14;;;;;;;;;;;;;;;20.88;33.83;100630.22;2166458;40;114342;-57
2021/05/05 07:54:45;;;;;;;;;;;;;;;20.89;33.91;100632.72;2165123;40;114804;-57
2021/05/05 07:56:24;;;;;;;;;;;;;;;20.85;34.22;100623.22;2167047;40;114033;-56
2021/05/05 07:57:57;;;;;;;;;;;;;;;20.85;33.81;100626.88;2161483;40;113986;-57